Taunton 2W

41° 53' 56"N, 71° 08' 19"W, Elevation 50 ft.
Eastern Time

Hourly observations for the last 72 hours

Date Time Temperature (°F) Humi-
dity

(%)
Wind
(mph)
Pressure Rain (in) Sun
(W/m2)
UV ET
(in)
Air Dew 6 Hour 1 Hr 3 Hr 6 Hr Day
Alt
(in)
Sea
Level

(mb)
Max Min
12 13:00 37.3 18.4 39.5 21.0 46 NW 10 G 19 30.02 1016.7 0.00 417 0.8 0.028
12 12:00 36.3 19.9 51 WNW 7 G 13 30.02 1016.6 0.00 132 0.9 0.020
12 11:00 35.9 21.7 56 NW 10 G 22 30.01 1016.3 0.00 429 1.0 0.012
12 10:00 33.9 22.3 62 WNW 12 G 16 30.01 1016.3 0.00 369 0.7 0.007
12 09:00 29.5 20.6 69 NW 6 G 9 30.00 1015.8 0.00 84 0.0 0.005
12 08:00 23.6 18.3 80 NW 1 G 4 29.98 1015.3 0.00 128 0.0 0.005
12 07:00 22.0 16.8 30.5 22.0 80 WNW 1 G 3 29.96 1014.5 0.00 0 0.0 0.005
12 06:00 25.5 17.7 72 NW 3 G 7 29.93 1013.6 0.00 0 0.0 0.004
12 05:00 27.8 19.0 69 NW 7 G 10 29.90 1012.6 0.00 0 0.0 0.003
12 04:00 28.8 18.9 66 NNW 3 G 8 29.88 1011.8 0.00 0 0.0 0.002
12 03:00 30.1 19.4 64 NW 5 G 11 29.88 1011.7 0.00 0 0.0 0.001
12 02:00 30.4 20.4 66 NNW 4 G 10 29.87 1011.7 0.00 0 0.0 0.000
12 01:00 28.8 24.3 30.7 28.8 83 NNW 0 G 3 29.86 1011.1 0.00 0 0.0 0.000
12 00:00 29.7 24.9 82 Calm 29.87 1011.7 0.00 0 0.0 0.034
11 23:00 30.6 24.3 77 NNW 3 G 7 29.89 1012.3 0.00 0 0.0 0.034
11 22:00 29.7 24.3 80 SSW 0 G 2 29.91 1012.8 0.00 0 0.0 0.034
11 21:00 29.8 23.8 78 SSW 1 G 2 29.93 1013.5 0.00 0 0.0 0.034
11 20:00 29.9 23.3 76 Calm 29.94 1013.8 0.00 0 0.0 0.034
11 19:00 29.8 22.2 38.0 27.5 73 Calm 29.94 1014.0 0.00 0 0.0 0.034
11 18:00 29.4 21.8 73 SSW 1 G 2 29.97 1014.8 0.00 0 0.0 0.034
11 17:00 28.2 21.0 74 SSW 0 G 2 29.96 1014.7 0.00 0 0.0 0.034
11 16:00 30.4 19.7 64 SSW 0 G 2 29.97 1015.1 0.00 11 0.0 0.033
11 15:00 36.3 20.8 53 S 6 G 10 30.00 1016.0 0.00 132 0.0 0.029
11 14:00 36.6 19.7 50 SW 4 G 9 30.01 1016.3 0.00 160 0.0 0.024
11 13:00 35.4 16.2 36.4 9.8 45 S 1 G 8 30.04 1017.2 0.00 230 0.9 0.019
11 12:00 34.6 14.9 44 S 4 G 8 30.08 1018.6 0.00 288 1.0 0.012
11 11:00 32.8 16.2 50 NNW 0 G 2 30.11 1019.6 0.00 441 1.1 0.006
11 10:00 29.4 17.2 60 NNW 1 G 4 30.13 1020.3 0.00 385 0.8 0.002
11 09:00 23.1 18.4 82 NNW 0 G 1 30.16 1021.5 0.00 278 0.0 0.000
11 08:00 12.6 10.0 89 Calm 30.18 1022.0 0.00 91 0.0 0.000
11 07:00 9.8 7.2 13.8 9.8 89 Calm 30.18 1022.0 0.00 0 0.0 0.000
11 06:00 10.7 8.1 89 Calm 30.18 1022.0 0.00 0 0.0 0.000
11 05:00 10.8 8.2 89 Calm 30.17 1021.6 0.00 0 0.0 0.000
11 04:00 11.4 8.8 89 Calm 30.16 1021.5 0.00 0 0.0 0.000
11 03:00 12.0 9.6 90 Calm 30.17 1021.8 0.00 0 0.0 0.000
11 02:00 12.8 10.4 90 Calm 30.17 1021.8 0.00 0 0.0 0.000
11 01:00 13.7 11.3 21.3 13.6 90 Calm 30.18 1021.9 0.00 0 0.0 0.000
11 00:00 14.4 11.8 89 Calm 30.16 1021.4 0.00 0 0.0 0.046
10 23:00 15.4 12.7 89 Calm 30.16 1021.2 0.00 0 0.0 0.046
10 22:00 16.6 13.7 88 NNW 1 G 2 30.16 1021.2 0.00 0 0.0 0.046
10 21:00 18.1 14.9 87 NNW 1 G 1 30.15 1021.0 0.00 0 0.0 0.046
10 20:00 19.9 15.8 84 NNW 0 G 1 30.15 1021.0 0.00 0 0.0 0.046
10 19:00 21.3 16.4 39.0 21.3 81 NNW 1 G 2 30.12 1020.0 0.00 0 0.0 0.046
10 18:00 23.6 17.1 76 Calm 30.11 1019.5 0.00 0 0.0 0.046
10 17:00 26.7 18.2 70 Calm 30.09 1019.1 0.00 0 0.0 0.046
10 16:00 34.5 18.2 51 NNW 2 G 4 30.08 1018.8 0.00 11 0.0 0.044
10 15:00 37.6 19.7 48 NW 4 G 11 30.07 1018.3 0.00 148 0.0 0.039
10 14:00 39.0 20.5 47 NW 3 G 8 30.06 1018.0 0.00 281 0.5 0.033
10 13:00 38.3 20.3 39.2 17.0 48 NNW 6 G 13 30.05 1017.7 0.00 385 0.9 0.025
10 12:00 37.3 19.9 49 NNW 10 G 13 30.05 1017.7 0.00 441 1.2 0.017
10 11:00 36.3 20.8 53 NNW 10 G 16 30.07 1018.5 0.00 439 1.1 0.009
10 10:00 35.0 21.3 57 NNW 4 G 12 30.09 1019.0 0.00 387 0.8 0.003
10 09:00 30.6 21.6 69 NNW 5 G 10 30.08 1018.6 0.00 278 0.0 0.000
10 08:00 20.1 17.6 90 NNW 0 G 3 30.06 1018.0 0.00 141 0.0 0.000
10 07:00 17.3 14.4 19.7 15.3 88 NW 0 G 4 30.06 1017.9 0.00 0 0.0 0.000
10 06:00 17.0 14.6 90 NW 2 G 5 30.05 1017.5 0.00 0 0.0 0.000
10 05:00 15.7 13.3 90 WNW 1 G 3 30.04 1017.3 0.00 0 0.0 0.000
10 04:00 15.4 13.0 90 WSW 1 G 2 30.04 1017.4 0.00 0 0.0 0.000
10 03:00 16.2 13.8 90 Calm 30.07 1018.2 0.00 0 0.0 0.000
10 02:00 17.6 15.2 90 S 0 G 2 30.08 1018.6 0.00 0 0.0 0.000
10 01:00 19.7 16.7 30.0 19.7 88 S 0 G 2 30.09 1019.0 0.00 0 0.0 0.000
10 00:00 22.6 18.8 85 S 0 G 1 30.11 1019.8 0.00 0 0.0 0.038
9 23:00 27.2 20.0 74 S 1 G 2 30.14 1020.7 0.00 0 0.0 0.037
9 22:00 28.1 20.6 73 SW 3 G 6 30.13 1020.4 0.00 0 0.0 0.036
9 21:00 28.5 20.6 72 SW 2 G 6 30.15 1021.2 0.00 0 0.0 0.035
9 20:00 29.3 20.4 69 SW 4 G 6 30.18 1021.9 0.00 0 0.0 0.034
9 19:00 29.9 20.6 34.8 29.1 68 SSW 4 G 9 30.17 1021.8 0.00 0 0.0 0.033
9 18:00 29.3 19.7 67 SSW 3 G 5 30.20 1022.7 0.00 0 0.0 0.032
9 17:00 30.3 18.8 62 SW 2 G 5 30.22 1023.4 0.00 0 0.0 0.031
9 16:00 31.3 19.0 60 SSW 4 G 8 30.24 1024.0 0.00 11 0.0 0.029
9 15:00 32.9 19.7 58 WSW 5 G 10 30.26 1024.7 0.00 79 0.0 0.026
9 14:00 34.2 19.7 55 WSW 6 G 12 30.28 1025.5 0.00 158 0.5 0.021

Data generated by WxSolution Version 1.9.1.7, Build 2018.11.24.